Time;durP1;ratioP1;P1;durP2;ratioP2;P2;SDS_P1;SDS_P2;PMS_P1;PMS_P2;Temp;Humidity;BMP_temperature;BMP_pressure;BME280_temperature;BME280_humidity;BME280_pressure;Samples;Min_cycle;Max_cycle;Signal;HPM_P1;HPM_P2
2023/08/16 00:01:54;;;;;;;8.35;3.20;;;15.40;95.70;;;;;;5038754;28;20111;-68
2023/08/16 00:04:20;;;;;;;9.43;3.33;;;15.30;95.80;;;;;;5020823;28;20036;-68
2023/08/16 00:06:45;;;;;;;10.70;3.53;;;15.30;95.80;;;;;;5031743;28;21388;-68
2023/08/16 00:09:11;;;;;;;7.78;3.20;;;15.30;95.90;;;;;;5022188;28;20030;-68
2023/08/16 00:11:36;;;;;;;9.95;3.53;;;15.20;95.80;;;;;;5032961;28;20394;-68
2023/08/16 00:14:02;;;;;;;13.32;3.95;;;15.20;95.90;;;;;;5034355;28;20120;-69
2023/08/16 00:16:28;;;;;;;14.82;3.70;;;15.20;96.20;;;;;;5021221;28;20029;-68
2023/08/16 00:18:53;;;;;;;7.55;3.83;;;15.20;96.10;;;;;;5022417;28;20029;-68
2023/08/16 00:21:19;;;;;;;10.52;3.80;;;15.10;95.90;;;;;;5030126;28;21888;-68
2023/08/16 00:23:44;;;;;;;10.85;3.78;;;15.10;96.10;;;;;;5022225;28;20117;-68
2023/08/16 00:26:10;;;;;;;13.23;4.63;;;15.10;96.10;;;;;;5022074;28;20473;-68
2023/08/16 00:28:35;;;;;;;8.27;3.75;;;15.00;96.10;;;;;;5028368;28;20046;-67
2023/08/16 00:31:01;;;;;;;7.50;3.42;;;15.10;96.70;;;;;;5030535;28;20215;-67
2023/08/16 00:33:26;;;;;;;9.57;3.63;;;15.00;96.60;;;;;;5025867;28;20030;-68
2023/08/16 00:35:52;;;;;;;12.15;4.20;;;15.00;96.60;;;;;;5024469;28;20502;-67
2023/08/16 00:38:18;;;;;;;11.57;3.63;;;15.00;96.30;;;;;;5028117;28;20462;-68
2023/08/16 00:40:51;;;;;;;8.52;3.40;;;15.00;96.10;;;;;;5023775;28;20493;-69
2023/08/16 00:43:17;;;;;;;9.77;3.90;;;14.90;96.20;;;;;;5026014;28;20029;-67
2023/08/16 00:45:44;;;;;;;8.48;3.75;;;14.90;96.10;;;;;;5029433;28;20462;-68
2023/08/16 00:48:11;;;;;;;8.40;3.85;;;14.90;96.30;;;;;;5029693;28;20042;-69
2023/08/16 00:50:37;;;;;;;10.68;4.10;;;14.80;96.50;;;;;;5027648;28;20108;-67
2023/08/16 00:53:02;;;;;;;12.65;4.00;;;14.90;96.80;;;;;;5037836;28;20038;-68
2023/08/16 00:55:28;;;;;;;10.05;4.18;;;14.80;97.00;;;;;;5025195;28;20042;-68
2023/08/16 00:57:54;;;;;;;10.95;3.67;;;14.80;97.10;;;;;;5031788;28;20037;-67
2023/08/16 01:00:20;;;;;;;8.82;4.00;;;14.80;97.20;;;;;;5034722;28;20036;-67
2023/08/16 01:02:45;;;;;;;10.05;3.92;;;14.80;97.10;;;;;;5041524;28;20037;-67
2023/08/16 01:05:11;;;;;;;6.80;3.60;;;14.70;97.00;;;;;;5042722;28;20543;-67
2023/08/16 01:07:36;;;;;;;8.30;3.58;;;14.70;97.00;;;;;;5034111;28;20039;-67
2023/08/16 01:10:03;;;;;;;9.88;4.15;;;14.70;96.90;;;;;;5023586;28;20033;-67
2023/08/16 01:12:38;;;;;;;8.35;4.03;;;14.60;96.60;;;;;;5027076;28;20175;-68
2023/08/16 01:15:20;;;;;;;7.68;4.00;;;14.60;96.60;;;;;;5023602;28;20080;-67
2023/08/16 01:17:47;;;;;;;8.98;4.07;;;14.60;97.10;;;;;;5026802;28;20038;-67
2023/08/16 01:20:14;;;;;;;6.88;3.55;;;14.60;97.40;;;;;;5032947;28;20109;-67
2023/08/16 01:22:58;;;;;;;9.95;4.05;;;14.60;97.40;;;;;;5030657;28;20018;-67
2023/08/16 01:25:45;;;;;;;11.32;3.80;;;14.60;97.30;;;;;;5027003;28;20368;-68
2023/08/16 01:28:11;;;;;;;10.02;3.75;;;14.50;96.90;;;;;;5023751;28;20041;-67
2023/08/16 01:30:40;;;;;;;9.93;3.50;;;14.50;96.80;;;;;;5025349;28;20075;-67
2023/08/16 01:33:09;;;;;;;12.90;4.15;;;14.50;96.90;;;;;;5030972;28;20013;-67
2023/08/16 01:35:36;;;;;;;11.63;4.43;;;14.40;96.80;;;;;;5031991;28;20024;-67
2023/08/16 01:38:03;;;;;;;11.00;4.00;;;14.40;97.00;;;;;;5026351;28;20036;-67
2023/08/16 01:40:34;;;;;;;10.38;3.42;;;14.40;97.00;;;;;;5025332;28;20033;-67
2023/08/16 01:43:01;;;;;;;7.78;3.72;;;14.30;96.90;;;;;;5024456;28;20033;-67
2023/08/16 01:45:27;;;;;;;8.30;3.70;;;14.30;97.10;;;;;;5026335;28;20044;-67
2023/08/16 01:47:54;;;;;;;10.32;3.80;;;14.30;97.10;;;;;;5030093;28;20030;-67
2023/08/16 01:50:19;;;;;;;11.63;3.42;;;14.30;97.10;;;;;;5030581;28;20037;-67
2023/08/16 01:52:46;;;;;;;11.95;3.40;;;14.30;97.10;;;;;;5034073;28;20377;-67
2023/08/16 01:55:12;;;;;;;6.00;3.25;;;14.20;97.00;;;;;;5023776;28;20500;-67
2023/08/16 01:57:37;;;;;;;8.05;3.90;;;14.20;97.10;;;;;;5025486;28;20046;-68
2023/08/16 02:00:04;;;;;;;6.88;3.83;;;14.20;97.40;;;;;;5032286;28;20461;-68
2023/08/16 02:02:29;;;;;;;10.45;3.83;;;14.20;97.30;;;;;;5027161;28;20026;-68
2023/08/16 02:04:55;;;;;;;8.15;3.75;;;14.20;97.60;;;;;;5031924;28;20421;-67
2023/08/16 02:07:21;;;;;;;12.57;4.18;;;14.20;97.60;;;;;;5027880;28;20037;-67
2023/08/16 02:09:46;;;;;;;12.27;4.40;;;14.20;97.50;;;;;;5032871;28;20029;-67
2023/08/16 02:12:12;;;;;;;12.77;3.90;;;14.10;97.50;;;;;;5027586;28;20431;-67
2023/08/16 02:14:37;;;;;;;11.82;3.92;;;14.10;97.50;;;;;;5023596;28;20018;-67
2023/08/16 02:17:03;;;;;;;7.72;3.78;;;14.10;97.40;;;;;;5025731;28;20455;-67
2023/08/16 02:19:28;;;;;;;8.93;3.88;;;14.00;97.00;;;;;;5032312;28;20039;-67
2023/08/16 02:21:54;;;;;;;7.88;3.25;;;14.00;96.90;;;;;;5023046;28;20040;-67
2023/08/16 02:24:19;;;;;;;9.75;3.72;;;14.00;97.00;;;;;;5030047;28;20072;-67
2023/08/16 02:26:45;;;;;;;12.15;3.85;;;14.00;97.50;;;;;;5042012;28;20528;-66
2023/08/16 02:29:10;;;;;;;10.35;3.63;;;14.00;97.70;;;;;;5024374;28;20025;-67
2023/08/16 02:31:36;;;;;;;7.03;4.18;;;14.00;97.70;;;;;;5033781;28;20750;-67
2023/08/16 02:34:01;;;;;;;10.68;4.05;;;14.00;97.70;;;;;;5035682;28;20025;-67
2023/08/16 02:36:27;;;;;;;9.50;3.88;;;14.00;97.30;;;;;;5029826;28;20045;-67
2023/08/16 02:38:53;;;;;;;8.00;4.03;;;14.00;97.20;;;;;;5032491;28;20474;-66
2023/08/16 02:41:19;;;;;;;9.27;4.40;;;14.00;97.20;;;;;;5030559;28;20033;-67
2023/08/16 02:43:44;;;;;;;12.38;4.70;;;14.00;97.30;;;;;;5018980;28;20118;-67
2023/08/16 02:46:10;;;;;;;11.73;4.40;;;14.00;97.30;;;;;;5027046;28;20032;-66
2023/08/16 02:48:35;;;;;;;7.18;4.20;;;13.90;97.20;;;;;;5028265;28;20052;-67
2023/08/16 02:51:01;;;;;;;9.20;4.15;;;13.90;97.20;;;;;;5028238;28;20042;-67
2023/08/16 02:53:26;;;;;;;10.32;4.65;;;13.90;97.30;;;;;;5035621;28;20038;-67
2023/08/16 02:55:52;;;;;;;12.48;4.70;;;13.90;97.30;;;;;;5034288;28;20029;-67
2023/08/16 02:58:17;;;;;;;9.63;3.97;;;13.80;97.30;;;;;;5032202;28;20444;-67
2023/08/16 03:00:43;;;;;;;12.10;4.20;;;13.80;97.60;;;;;;5034201;28;20044;-67
2023/08/16 03:03:08;;;;;;;10.32;4.97;;;13.80;97.60;;;;;;5032195;28;20037;-67
2023/08/16 03:05:33;;;;;;;12.35;4.57;;;13.80;97.70;;;;;;5024314;28;20017;-66
2023/08/16 03:07:59;;;;;;;13.35;5.40;;;13.80;97.90;;;;;;5029478;28;20064;-67
2023/08/16 03:10:24;;;;;;;11.52;5.75;;;13.80;97.90;;;;;;5027957;28;20095;-67
2023/08/16 03:12:50;;;;;;;17.05;5.22;;;13.80;97.90;;;;;;5032893;28;20470;-67
2023/08/16 03:15:15;;;;;;;16.80;5.40;;;13.80;98.00;;;;;;5026262;28;20040;-66
2023/08/16 03:17:41;;;;;;;12.07;5.18;;;13.80;98.10;;;;;;5030213;28;20040;-66
2023/08/16 03:20:08;;;;;;;17.55;5.63;;;13.80;98.20;;;;;;5032904;28;20061;-67
2023/08/16 03:22:33;;;;;;;19.42;6.20;;;13.80;98.30;;;;;;5030048;28;20378;-67
2023/08/16 03:24:59;;;;;;;19.05;6.88;;;13.90;98.50;;;;;;5025703;28;20061;-66
2023/08/16 03:27:24;;;;;;;19.15;6.45;;;13.90;98.50;;;;;;5032692;28;20044;-67
2023/08/16 03:29:50;;;;;;;21.02;7.03;;;14.00;98.70;;;;;;5032236;28;20029;-67
2023/08/16 03:32:15;;;;;;;21.88;7.15;;;13.90;98.60;;;;;;5033356;28;20042;-68
2023/08/16 03:34:42;;;;;;;14.73;6.65;;;13.90;98.70;;;;;;5028289;28;20033;-66
2023/08/16 03:37:08;;;;;;;12.55;7.07;;;14.00;98.70;;;;;;5028002;28;20044;-66
2023/08/16 03:39:33;;;;;;;25.08;8.27;;;13.90;98.70;;;;;;5030389;28;20036;-67
2023/08/16 03:41:59;;;;;;;21.70;8.15;;;13.90;98.70;;;;;;5038027;28;20069;-67
2023/08/16 03:44:24;;;;;;;19.98;8.65;;;13.90;98.80;;;;;;5039175;28;20021;-67
2023/08/16 03:46:50;;;;;;;19.73;8.00;;;13.90;98.80;;;;;;5029161;28;20073;-67
2023/08/16 03:49:16;;;;;;;20.67;8.93;;;13.90;98.90;;;;;;5028714;28;20030;-66
2023/08/16 03:51:41;;;;;;;19.98;8.80;;;13.90;98.90;;;;;;5034810;28;20351;-67
2023/08/16 03:54:06;;;;;;;22.42;8.88;;;13.90;98.80;;;;;;5027689;28;20042;-67
2023/08/16 03:56:32;;;;;;;20.52;8.23;;;13.80;98.60;;;;;;5026828;28;20103;-67
2023/08/16 03:58:57;;;;;;;17.75;7.18;;;13.80;98.70;;;;;;5028611;28;20065;-66
2023/08/16 04:01:23;;;;;;;24.08;7.88;;;13.70;98.50;;;;;;5025043;28;20080;-67
2023/08/16 04:03:48;;;;;;;17.33;7.55;;;13.60;98.40;;;;;;5030297;28;20558;-66
2023/08/16 04:06:15;;;;;;;17.00;7.15;;;13.60;98.30;;;;;;5031270;28;20037;-67
2023/08/16 04:08:41;;;;;;;21.88;7.78;;;13.60;98.00;;;;;;5024415;28;20568;-66
2023/08/16 04:11:06;;;;;;;14.93;7.95;;;13.60;97.90;;;;;;5028782;28;20037;-66
2023/08/16 04:13:33;;;;;;;19.65;7.25;;;13.60;98.10;;;;;;5027815;28;20255;-67
2023/08/16 04:15:58;;;;;;;16.20;6.80;;;13.60;98.20;;;;;;5019931;28;20036;-67
2023/08/16 04:18:25;;;;;;;12.88;5.90;;;13.60;98.00;;;;;;5017278;28;20037;-67
2023/08/16 04:20:51;;;;;;;14.25;6.75;;;13.60;98.40;;;;;;5029044;28;20030;-66
2023/08/16 04:23:17;;;;;;;10.98;5.82;;;13.60;98.50;;;;;;5039567;28;20037;-67
2023/08/16 04:25:42;;;;;;;13.50;5.35;;;13.50;98.60;;;;;;5028367;28;20128;-67
2023/08/16 04:28:08;;;;;;;12.35;5.70;;;13.50;98.50;;;;;;5027842;28;20394;-65
2023/08/16 04:30:34;;;;;;;11.80;5.65;;;13.60;98.50;;;;;;5023574;28;20124;-65
2023/08/16 04:32:59;;;;;;;11.40;5.47;;;13.60;98.60;;;;;;5031258;28;20037;-66
2023/08/16 04:35:24;;;;;;;18.42;6.15;;;13.60;98.60;;;;;;5034000;28;20040;-67
2023/08/16 04:37:50;;;;;;;14.68;6.13;;;13.70;98.70;;;;;;5027774;28;20060;-65
2023/08/16 04:40:15;;;;;;;13.63;6.40;;;13.80;98.80;;;;;;5027651;28;20082;-65
2023/08/16 04:42:41;;;;;;;13.07;6.00;;;13.90;98.60;;;;;;5016757;28;20033;-65
2023/08/16 04:45:07;;;;;;;11.10;5.75;;;14.00;98.50;;;;;;5021333;28;20505;-67
2023/08/16 04:47:32;;;;;;;12.07;5.63;;;14.10;98.50;;;;;;5023461;28;20138;-65
2023/08/16 04:49:58;;;;;;;15.88;8.18;;;14.30;98.40;;;;;;5027665;28;20033;-66
2023/08/16 04:52:24;;;;;;;17.70;8.38;;;14.40;98.50;;;;;;5018049;28;20022;-66
2023/08/16 04:54:49;;;;;;;17.45;7.95;;;14.50;98.50;;;;;;5029568;28;20041;-66
2023/08/16 04:57:15;;;;;;;18.00;8.38;;;14.60;98.50;;;;;;5029321;28;20033;-65
2023/08/16 04:59:40;;;;;;;19.35;9.05;;;14.70;98.50;;;;;;5034332;28;20444;-66
2023/08/16 05:02:07;;;;;;;19.02;8.75;;;14.80;98.40;;;;;;5044708;28;20029;-65
2023/08/16 05:04:32;;;;;;;17.60;8.48;;;15.00;98.40;;;;;;5024778;28;20473;-65
2023/08/16 05:06:58;;;;;;;18.55;7.80;;;15.00;98.30;;;;;;5042903;28;20049;-66
2023/08/16 05:09:23;;;;;;;18.48;8.38;;;15.00;98.20;;;;;;5037902;28;20033;-67
2023/08/16 05:11:49;;;;;;;18.08;9.90;;;15.10;98.30;;;;;;5028468;28;20389;-66
2023/08/16 05:14:14;;;;;;;27.83;11.50;;;15.20;98.50;;;;;;5025250;28;20049;-66
2023/08/16 05:16:39;;;;;;;20.98;9.88;;;15.30;98.50;;;;;;5027982;28;21248;-66
2023/08/16 05:19:05;;;;;;;20.27;11.27;;;15.40;98.60;;;;;;5031276;28;20049;-66
2023/08/16 05:21:30;;;;;;;21.95;11.35;;;15.50;98.50;;;;;;5026823;28;20462;-66
2023/08/16 05:23:56;;;;;;;27.67;11.55;;;15.50;98.30;;;;;;5032605;28;20137;-66
2023/08/16 05:26:21;;;;;;;18.35;10.77;;;15.50;98.20;;;;;;5029904;28;20079;-67
2023/08/16 05:28:47;;;;;;;21.83;9.85;;;15.50;98.10;;;;;;5024879;28;20378;-67
2023/08/16 05:31:12;;;;;;;17.73;8.98;;;15.50;98.10;;;;;;5022942;28;20052;-66
2023/08/16 05:33:39;;;;;;;13.73;9.13;;;15.60;98.20;;;;;;5023642;28;20033;-66
2023/08/16 05:36:05;;;;;;;19.58;8.43;;;15.60;97.90;;;;;;5023063;28;20030;-66
2023/08/16 05:38:31;;;;;;;12.98;7.97;;;15.60;97.90;;;;;;5023595;28;20087;-66
2023/08/16 05:40:58;;;;;;;17.52;8.10;;;15.70;97.90;;;;;;5019619;28;20069;-67
2023/08/16 05:43:23;;;;;;;18.85;8.40;;;15.80;97.90;;;;;;5027815;28;20029;-67
2023/08/16 05:45:50;;;;;;;16.35;8.60;;;15.80;97.90;;;;;;5023644;28;20387;-67
2023/08/16 05:48:16;;;;;;;12.27;7.80;;;15.80;97.70;;;;;;5027249;28;20300;-67
2023/08/16 05:50:41;;;;;;;15.45;7.60;;;15.80;97.70;;;;;;5029101;28;20034;-67
2023/08/16 05:53:07;;;;;;;17.75;7.00;;;15.90;97.70;;;;;;5027553;28;20044;-66
2023/08/16 05:55:32;;;;;;;16.17;7.15;;;16.00;97.70;;;;;;5022880;28;20056;-66
2023/08/16 05:57:58;;;;;;;12.05;7.10;;;16.00;97.70;;;;;;5025636;28;20115;-65
2023/08/16 06:00:23;;;;;;;12.68;6.65;;;16.00;97.30;;;;;;5027855;28;20389;-66
2023/08/16 06:02:49;;;;;;;17.13;6.40;;;16.00;97.30;;;;;;5024864;28;20108;-66
2023/08/16 06:05:15;;;;;;;10.50;5.85;;;16.10;97.20;;;;;;5023603;28;20029;-66
2023/08/16 06:07:40;;;;;;;18.17;6.57;;;16.20;97.20;;;;;;5023516;28;20441;-66
2023/08/16 06:10:06;;;;;;;15.60;6.53;;;16.30;97.20;;;;;;5027401;28;20044;-66
2023/08/16 06:12:32;;;;;;;14.32;6.30;;;16.30;97.00;;;;;;5019266;28;20473;-66
2023/08/16 06:14:58;;;;;;;9.93;5.40;;;16.40;97.00;;;;;;5025770;28;20033;-66
2023/08/16 06:17:24;;;;;;;12.75;5.35;;;16.40;96.60;;;;;;5032599;28;20037;-67
2023/08/16 06:19:49;;;;;;;12.20;5.43;;;16.50;96.50;;;;;;5031846;28;20049;-66
2023/08/16 06:22:15;;;;;;;13.73;5.18;;;16.60;96.60;;;;;;5022613;28;20462;-66
2023/08/16 06:24:41;;;;;;;14.45;6.03;;;16.70;96.20;;;;;;5028247;28;20401;-66
2023/08/16 06:27:08;;;;;;;14.65;4.72;;;16.70;95.60;;;;;;5036409;28;20096;-66
2023/08/16 06:29:35;;;;;;;16.38;5.00;;;16.80;95.30;;;;;;5020670;28;20473;-66
2023/08/16 06:32:01;;;;;;;12.75;4.43;;;17.10;95.80;;;;;;5028915;28;20029;-66
2023/08/16 06:34:26;;;;;;;10.45;4.22;;;17.10;95.60;;;;;;5018179;28;20041;-66
2023/08/16 06:36:52;;;;;;;10.10;4.18;;;17.10;95.00;;;;;;5015155;28;20038;-66
2023/08/16 06:39:18;;;;;;;10.43;3.95;;;17.20;95.10;;;;;;5022057;28;20034;-66
2023/08/16 06:41:44;;;;;;;10.13;3.70;;;17.30;95.50;;;;;;5034766;28;20038;-69
2023/08/16 06:44:10;;;;;;;11.07;3.70;;;17.40;95.40;;;;;;5036319;28;20448;-67
2023/08/16 06:46:35;;;;;;;9.35;3.72;;;17.50;94.50;;;;;;5031515;28;20073;-65
2023/08/16 06:49:01;;;;;;;12.13;4.40;;;17.50;94.60;;;;;;5021308;28;20033;-67
2023/08/16 06:51:26;;;;;;;10.35;4.00;;;17.60;94.60;;;;;;5028076;28;20038;-65
2023/08/16 06:53:52;;;;;;;11.57;3.65;;;17.70;94.70;;;;;;5032572;28;20029;-64
2023/08/16 06:56:17;;;;;;;12.45;3.83;;;17.80;94.30;;;;;;5036463;28;20073;-65
2023/08/16 06:58:43;;;;;;;14.38;3.90;;;17.90;94.50;;;;;;5034175;28;20045;-64
2023/08/16 07:01:09;;;;;;;9.02;3.15;;;18.10;94.10;;;;;;5032987;28;20091;-65
2023/08/16 07:03:36;;;;;;;11.15;2.85;;;18.10;92.70;;;;;;5032143;28;20026;-64
2023/08/16 07:06:01;;;;;;;12.57;3.15;;;18.20;92.70;;;;;;5027653;28;20041;-65
2023/08/16 07:08:27;;;;;;;8.75;3.00;;;18.40;92.30;;;;;;5016408;28;20064;-65
2023/08/16 07:10:54;;;;;;;9.85;3.50;;;18.60;92.90;;;;;;5028885;28;20033;-64
2023/08/16 07:13:19;;;;;;;8.02;2.72;;;18.50;92.00;;;;;;5027256;28;20021;-64
2023/08/16 07:15:45;;;;;;;6.72;2.58;;;18.50;92.80;;;;;;5021317;28;20037;-67
2023/08/16 07:18:10;;;;;;;13.10;3.30;;;18.70;92.40;;;;;;5019978;28;20056;-64
2023/08/16 07:20:36;;;;;;;7.70;2.65;;;18.60;91.50;;;;;;5024396;28;20033;-64
2023/08/16 07:23:02;;;;;;;10.45;2.65;;;18.60;91.60;;;;;;5013784;28;20770;-64
2023/08/16 07:25:28;;;;;;;7.05;3.00;;;18.70;91.50;;;;;;5024370;28;20054;-64
2023/08/16 07:27:53;;;;;;;13.13;2.90;;;18.70;90.90;;;;;;5021542;28;20087;-64
2023/08/16 07:30:19;;;;;;;11.25;2.92;;;18.70;90.90;;;;;;5018218;28;20079;-65
2023/08/16 07:32:44;;;;;;;9.20;2.85;;;18.50;90.40;;;;;;5026873;28;20033;-64
2023/08/16 07:35:10;;;;;;;9.95;3.08;;;18.60;91.00;;;;;;5027589;28;20159;-64
2023/08/16 07:37:36;;;;;;;6.78;2.92;;;18.60;90.90;;;;;;5026889;28;20442;-64
2023/08/16 07:40:03;;;;;;;9.60;2.95;;;18.70;91.30;;;;;;5035050;28;20037;-64
2023/08/16 07:42:29;;;;;;;6.10;2.63;;;18.70;90.60;;;;;;5023128;28;20034;-64
2023/08/16 07:44:54;;;;;;;5.60;1.85;;;19.00;91.00;;;;;;5033717;28;20033;-64
2023/08/16 07:47:19;;;;;;;6.50;1.98;;;18.80;89.20;;;;;;5028532;28;20029;-64
2023/08/16 07:49:45;;;;;;;10.63;2.67;;;19.10;90.00;;;;;;5036031;28;20025;-64
2023/08/16 07:52:11;;;;;;;8.55;2.90;;;19.10;89.70;;;;;;5024763;28;20030;-66
2023/08/16 07:54:36;;;;;;;12.25;3.17;;;19.00;88.10;;;;;;5026538;28;20477;-64
2023/08/16 07:57:02;;;;;;;8.10;3.25;;;19.00;89.80;;;;;;5024749;28;20156;-64
2023/08/16 07:59:27;;;;;;;11.65;3.88;;;18.90;89.30;;;;;;5020307;28;20044;-64
2023/08/16 08:01:54;;;;;;;9.80;3.50;;;18.90;90.40;;;;;;5020822;28;20077;-66
2023/08/16 08:04:19;;;;;;;7.93;3.30;;;19.00;89.90;;;;;;5032727;28;20516;-64
2023/08/16 08:06:45;;;;;;;8.68;2.80;;;19.10;89.10;;;;;;5022381;28;20147;-64
2023/08/16 08:09:10;;;;;;;13.10;3.08;;;19.30;89.50;;;;;;5024614;28;20041;-64
2023/08/16 08:11:39;;;;;;;8.40;2.70;;;19.20;87.90;;;;;;5022936;28;20026;-64
2023/08/16 08:14:05;;;;;;;13.52;2.67;;;19.60;89.10;;;;;;5024562;28;20375;-64
2023/08/16 08:16:30;;;;;;;10.10;2.85;;;20.10;88.00;;;;;;5024695;28;20017;-64
2023/08/16 08:18:56;;;;;;;9.63;3.20;;;20.30;85.40;;;;;;5024593;28;20044;-65
2023/08/16 08:21:21;;;;;;;8.65;2.90;;;20.50;84.10;;;;;;5021772;28;20034;-64
2023/08/16 08:23:47;;;;;;;8.93;2.35;;;20.30;84.00;;;;;;5022590;28;20029;-65
2023/08/16 08:26:13;;;;;;;8.82;2.35;;;20.20;83.20;;;;;;5020560;28;20068;-64
2023/08/16 08:28:38;;;;;;;8.25;2.40;;;20.50;83.20;;;;;;5022531;28;20037;-64
2023/08/16 08:31:04;;;;;;;7.88;3.10;;;20.50;83.50;;;;;;5020327;28;20032;-64
2023/08/16 08:33:30;;;;;;;7.15;2.63;;;20.50;84.80;;;;;;5020403;28;20050;-64
2023/08/16 08:35:59;;;;;;;10.57;2.90;;;20.40;82.70;;;;;;5026003;28;20024;-64
2023/08/16 08:38:24;;;;;;;9.52;2.60;;;20.70;83.90;;;;;;5014306;28;20038;-64
2023/08/16 08:40:57;;;;;;;6.10;2.05;;;20.60;81.90;;;;;;5024274;28;20044;-64
2023/08/16 08:43:28;;;;;;;7.45;2.78;;;20.60;82.30;;;;;;5022242;28;20026;-64
2023/08/16 08:45:57;;;;;;;8.05;2.45;;;20.80;80.30;;;;;;5020422;28;20450;-64
2023/08/16 08:48:25;;;;;;;9.30;2.65;;;21.00;82.60;;;;;;5019424;28;20029;-70
2023/08/16 08:50:52;;;;;;;10.77;2.97;;;20.80;82.10;;;;;;5024347;28;20029;-64
2023/08/16 08:53:18;;;;;;;8.18;2.63;;;20.90;82.20;;;;;;5024189;28;20021;-65
2023/08/16 08:55:46;;;;;;;7.45;2.35;;;20.70;81.00;;;;;;5017647;28;20033;-64
2023/08/16 08:58:14;;;;;;;7.05;2.33;;;20.30;79.80;;;;;;5030128;28;20039;-66
2023/08/16 09:00:40;;;;;;;7.18;2.67;;;20.00;82.30;;;;;;5015892;28;20365;-64
2023/08/16 09:03:07;;;;;;;6.75;2.17;;;20.50;82.70;;;;;;5029861;28;20017;-64
2023/08/16 09:05:33;;;;;;;9.10;2.70;;;20.60;82.40;;;;;;5022472;28;20347;-64
2023/08/16 09:08:00;;;;;;;10.90;2.40;;;20.80;81.60;;;;;;5020493;28;20087;-64
2023/08/16 09:10:26;;;;;;;7.95;2.72;;;20.90;81.40;;;;;;5028020;28;20030;-65
2023/08/16 09:12:52;;;;;;;10.32;2.95;;;20.90;81.30;;;;;;5028495;28;20028;-68
2023/08/16 09:15:18;;;;;;;6.90;2.17;;;20.90;80.40;;;;;;5026259;28;20453;-68
2023/08/16 09:17:45;;;;;;;9.50;2.83;;;20.90;80.40;;;;;;5030267;28;20118;-68
2023/08/16 09:20:11;;;;;;;8.57;2.72;;;20.70;82.40;;;;;;5027020;28;20365;-70
2023/08/16 09:22:37;;;;;;;10.25;2.50;;;20.60;82.20;;;;;;5025761;28;20024;-70
2023/08/16 09:25:03;;;;;;;7.45;2.40;;;20.50;81.40;;;;;;5032482;28;20038;-69
2023/08/16 09:27:31;;;;;;;7.97;2.38;;;20.70;80.80;;;;;;5023625;28;20035;-69
2023/08/16 09:29:56;;;;;;;8.18;2.63;;;21.30;80.70;;;;;;5032688;28;20025;-68
2023/08/16 09:32:26;;;;;;;8.80;2.55;;;21.40;79.90;;;;;;5020789;28;20477;-68
2023/08/16 09:34:53;;;;;;;7.18;2.30;;;21.60;78.20;;;;;;5027505;28;20124;-69
2023/08/16 09:37:20;;;;;;;5.85;2.10;;;21.80;78.10;;;;;;5024538;28;20040;-68
2023/08/16 09:39:58;;;;;;;7.78;1.70;;;22.00;76.90;;;;;;5027883;28;20124;-70
2023/08/16 09:42:34;;;;;;;5.32;2.17;;;22.20;76.80;;;;;;5014418;28;20057;-69
2023/08/16 09:44:59;;;;;;;8.38;2.17;;;22.30;76.30;;;;;;5026813;28;20032;-70
2023/08/16 09:47:28;;;;;;;7.32;1.60;;;22.40;75.80;;;;;;5027280;28;20025;-68
2023/08/16 09:49:54;;;;;;;6.00;1.77;;;22.70;74.80;;;;;;5027763;28;20025;-68
2023/08/16 09:52:19;;;;;;;6.25;1.70;;;22.90;72.00;;;;;;5019201;28;20032;-68
2023/08/16 09:54:49;;;;;;;4.68;1.45;;;22.50;72.40;;;;;;5025318;28;20037;-69
2023/08/16 09:57:16;;;;;;;8.95;1.80;;;22.50;73.70;;;;;;5022533;28;20361;-68
2023/08/16 09:59:42;;;;;;;6.53;1.52;;;22.60;72.30;;;;;;5017803;28;20677;-68
2023/08/16 10:02:11;;;;;;;4.43;1.05;;;22.50;73.20;;;;;;5021724;28;20022;-69
2023/08/16 10:04:37;;;;;;;7.18;1.42;;;22.80;71.40;;;;;;5047003;28;20369;-69
2023/08/16 10:07:04;;;;;;;6.18;1.48;;;23.10;71.20;;;;;;5039678;28;20100;-68
2023/08/16 10:09:33;;;;;;;8.00;1.35;;;23.10;70.80;;;;;;5039661;28;20034;-68
2023/08/16 10:12:03;;;;;;;5.30;1.25;;;23.30;69.00;;;;;;5025922;28;20037;-69
2023/08/16 10:14:33;;;;;;;4.85;1.02;;;23.50;69.40;;;;;;5013453;28;20490;-69
2023/08/16 10:17:03;;;;;;;2.90;0.90;;;23.80;68.30;;;;;;5032029;28;20037;-69
2023/08/16 10:19:39;;;;;;;4.50;0.90;;;24.00;65.60;;;;;;5037023;28;20401;-68
2023/08/16 10:22:13;;;;;;;2.20;0.80;;;23.90;62.00;;;;;;5029745;28;20355;-68
2023/08/16 10:24:40;;;;;;;5.35;1.00;;;24.00;61.80;;;;;;5023877;28;20187;-70
2023/08/16 10:27:08;;;;;;;3.55;0.82;;;24.10;62.40;;;;;;5024245;28;20121;-68
2023/08/16 10:29:40;;;;;;;2.97;1.20;;;24.30;62.00;;;;;;5026369;28;20477;-69
2023/08/16 10:32:11;;;;;;;3.00;0.90;;;24.50;66.00;;;;;;5027804;28;20030;-69
2023/08/16 10:34:38;;;;;;;3.15;0.85;;;24.60;63.30;;;;;;5022737;28;20587;-69
2023/08/16 10:37:04;;;;;;;4.13;1.30;;;24.40;62.60;;;;;;5027076;28;20436;-69
2023/08/16 10:39:30;;;;;;;3.08;0.90;;;24.40;62.10;;;;;;5026518;28;20073;-69
2023/08/16 10:42:05;;;;;;;4.65;1.10;;;24.40;62.20;;;;;;5019158;28;20104;-69
2023/08/16 10:44:31;;;;;;;4.90;1.10;;;24.40;63.90;;;;;;5020636;28;20040;-69
2023/08/16 10:46:57;;;;;;;3.13;1.00;;;24.40;62.50;;;;;;5027058;28;20033;-69
2023/08/16 10:49:22;;;;;;;4.15;0.90;;;24.60;62.70;;;;;;5022490;28;20041;-69
2023/08/16 10:51:51;;;;;;;3.95;1.10;;;24.90;64.10;;;;;;5020506;28;20045;-69
2023/08/16 10:54:16;;;;;;;3.65;0.90;;;25.40;62.40;;;;;;5022752;28;20033;-69
2023/08/16 10:56:49;;;;;;;2.92;0.90;;;25.50;60.80;;;;;;5022923;28;20113;-70
2023/08/16 10:59:15;;;;;;;4.65;1.45;;;25.80;59.90;;;;;;5019906;28;20171;-70
2023/08/16 11:01:45;;;;;;;4.72;0.90;;;25.70;58.40;;;;;;5015189;28;20069;-70
2023/08/16 11:04:11;;;;;;;;;;;25.50;61.50;;;;;;5026257;28;20030;-69
2023/08/16 11:06:39;;;;;;;5.60;1.00;;;25.70;61.10;;;;;;5017155;28;19914;-70
2023/08/16 11:09:05;;;;;;;4.82;0.90;;;26.30;62.30;;;;;;5038060;28;20034;-70
2023/08/16 11:11:30;;;;;;;6.35;0.85;;;26.50;62.10;;;;;;5026053;28;20033;-69
2023/08/16 11:14:00;;;;;;;5.47;1.10;;;26.50;59.20;;;;;;5028565;28;20042;-69
2023/08/16 11:16:25;;;;;;;5.55;1.15;;;26.00;58.00;;;;;;5028412;28;20100;-69
2023/08/16 11:18:51;;;;;;;3.83;0.90;;;26.50;59.50;;;;;;5025507;28;20142;-70
2023/08/16 11:21:17;;;;;;;2.40;0.77;;;26.70;58.80;;;;;;5030253;28;20083;-70
2023/08/16 11:23:42;;;;;;;3.53;1.20;;;27.10;59.80;;;;;;5020122;28;20041;-70
2023/08/16 11:26:09;;;;;;;3.53;0.75;;;27.30;56.80;;;;;;5027132;28;20021;-68
2023/08/16 11:28:36;;;;;;;4.30;1.10;;;27.10;57.30;;;;;;5022589;28;20033;-68
2023/08/16 11:31:05;;;;;;;1.98;0.73;;;26.20;56.60;;;;;;5020581;28;20405;-68
2023/08/16 11:33:36;;;;;;;4.65;1.00;;;26.30;59.90;;;;;;5033367;28;20032;-68
2023/08/16 11:36:04;;;;;;;3.95;0.90;;;26.60;57.40;;;;;;5025055;28;20413;-69
2023/08/16 11:38:30;;;;;;;3.33;0.88;;;25.90;56.30;;;;;;5022363;28;20038;-68
2023/08/16 11:40:56;;;;;;;4.13;1.05;;;26.20;56.00;;;;;;5019539;28;20030;-68
2023/08/16 11:43:29;;;;;;;3.13;0.80;;;26.00;56.20;;;;;;5031611;28;20029;-68
2023/08/16 11:45:55;;;;;;;4.00;0.80;;;26.30;57.90;;;;;;5025762;28;20044;-68
2023/08/16 11:48:24;;;;;;;5.18;1.00;;;26.40;55.00;;;;;;5017590;28;20041;-68
2023/08/16 11:50:49;;;;;;;4.13;0.90;;;26.50;55.60;;;;;;5022623;28;20113;-68
2023/08/16 11:53:17;;;;;;;3.13;0.80;;;26.70;55.40;;;;;;5023085;28;20163;-69
2023/08/16 11:55:42;;;;;;;3.85;1.00;;;26.90;55.20;;;;;;5031521;28;20044;-69
2023/08/16 11:58:11;;;;;;;4.13;1.10;;;27.20;53.30;;;;;;5024138;28;20477;-68
2023/08/16 12:00:38;;;;;;;3.28;0.98;;;27.60;53.00;;;;;;5025411;28;20033;-67
2023/08/16 12:03:05;;;;;;;3.92;1.20;;;28.50;56.90;;;;;;5029971;28;20036;-69
2023/08/16 12:05:39;;;;;;;3.53;1.00;;;28.10;51.50;;;;;;5026375;28;20100;-69
2023/08/16 12:08:08;;;;;;;4.07;0.93;;;28.20;53.10;;;;;;5026389;28;20156;-69
2023/08/16 12:10:34;;;;;;;2.85;0.75;;;28.20;52.60;;;;;;5024023;28;20033;-69
2023/08/16 12:13:11;;;;;;;2.28;0.60;;;28.00;52.80;;;;;;5024499;28;20045;-68
2023/08/16 12:15:37;;;;;;;2.42;0.73;;;28.00;53.00;;;;;;5023183;28;20033;-69
2023/08/16 12:18:02;;;;;;;3.83;1.00;;;28.00;51.80;;;;;;5035441;28;20366;-68
2023/08/16 12:20:29;;;;;;;1.17;0.60;;;27.80;53.80;;;;;;5020260;28;20446;-69
2023/08/16 12:22:55;;;;;;;3.60;0.90;;;28.10;50.90;;;;;;5028919;28;20032;-69
2023/08/16 12:25:21;;;;;;;2.50;0.60;;;27.50;51.30;;;;;;5022646;28;20136;-69
2023/08/16 12:27:46;;;;;;;1.35;0.55;;;27.10;48.00;;;;;;5027493;28;20119;-69
2023/08/16 12:30:12;;;;;;;1.55;0.60;;;27.00;49.50;;;;;;5014215;28;20025;-68
2023/08/16 12:32:38;;;;;;;4.75;0.70;;;27.10;49.90;;;;;;5020176;28;20033;-68
2023/08/16 12:35:04;;;;;;;4.57;0.63;;;26.90;52.00;;;;;;5027951;28;20052;-68
2023/08/16 12:37:29;;;;;;;4.07;1.02;;;26.50;54.50;;;;;;5026180;28;20033;-67
2023/08/16 12:39:55;;;;;;;3.28;0.90;;;26.20;55.60;;;;;;5023419;28;20390;-67